sensor_id;sensor_type;location;lat;lon;timestamp;P1;durP1;ratioP1;P2;durP2;ratioP2
48685;SDS011;34485;51.536;3.816;2022-09-29T00:01:02;5.63;;;4.53;;
48685;SDS011;34485;51.536;3.816;2022-09-29T00:03:28;5.78;;;5.18;;
48685;SDS011;34485;51.536;3.816;2022-09-29T00:05:54;6.60;;;4.97;;
48685;SDS011;34485;51.536;3.816;2022-09-29T00:08:21;10.93;;;5.60;;
48685;SDS011;34485;51.536;3.816;2022-09-29T00:10:49;9.55;;;4.55;;
48685;SDS011;34485;51.536;3.816;2022-09-29T00:13:15;5.20;;;4.67;;
48685;SDS011;34485;51.536;3.816;2022-09-29T00:15:41;7.17;;;5.17;;
48685;SDS011;34485;51.536;3.816;2022-09-29T00:18:07;6.85;;;4.68;;
48685;SDS011;34485;51.536;3.816;2022-09-29T00:20:33;8.30;;;4.97;;
48685;SDS011;34485;51.536;3.816;2022-09-29T00:22:59;6.10;;;5.50;;
48685;SDS011;34485;51.536;3.816;2022-09-29T00:25:25;5.63;;;4.70;;
48685;SDS011;34485;51.536;3.816;2022-09-29T00:27:51;6.63;;;5.20;;
48685;SDS011;34485;51.536;3.816;2022-09-29T00:30:16;6.47;;;4.80;;
48685;SDS011;34485;51.536;3.816;2022-09-29T00:32:42;8.02;;;5.60;;
48685;SDS011;34485;51.536;3.816;2022-09-29T00:35:08;6.53;;;5.30;;
48685;SDS011;34485;51.536;3.816;2022-09-29T00:37:34;9.77;;;5.28;;
48685;SDS011;34485;51.536;3.816;2022-09-29T00:40:01;7.78;;;5.07;;
48685;SDS011;34485;51.536;3.816;2022-09-29T00:42:28;7.33;;;3.83;;
48685;SDS011;34485;51.536;3.816;2022-09-29T00:47:37;7.53;;;4.82;;
48685;SDS011;34485;51.536;3.816;2022-09-29T00:50:14;8.43;;;4.70;;
48685;SDS011;34485;51.536;3.816;2022-09-29T00:52:52;6.85;;;4.10;;
48685;SDS011;34485;51.536;3.816;2022-09-29T00:57:59;9.15;;;4.55;;
48685;SDS011;34485;51.536;3.816;2022-09-29T01:00:37;6.65;;;5.03;;
48685;SDS011;34485;51.536;3.816;2022-09-29T01:03:04;5.13;;;4.70;;
48685;SDS011;34485;51.536;3.816;2022-09-29T01:05:37;4.50;;;4.15;;
48685;SDS011;34485;51.536;3.816;2022-09-29T01:08:11;12.27;;;6.40;;
48685;SDS011;34485;51.536;3.816;2022-09-29T01:10:44;5.57;;;4.68;;
48685;SDS011;34485;51.536;3.816;2022-09-29T01:13:13;4.88;;;4.47;;
48685;SDS011;34485;51.536;3.816;2022-09-29T01:15:39;6.63;;;4.70;;
48685;SDS011;34485;51.536;3.816;2022-09-29T01:18:04;7.82;;;4.75;;
48685;SDS011;34485;51.536;3.816;2022-09-29T01:20:31;5.63;;;4.43;;
48685;SDS011;34485;51.536;3.816;2022-09-29T01:23:08;7.32;;;4.63;;
48685;SDS011;34485;51.536;3.816;2022-09-29T01:25:47;5.93;;;4.50;;
48685;SDS011;34485;51.536;3.816;2022-09-29T01:34:13;5.53;;;4.35;;
48685;SDS011;34485;51.536;3.816;2022-09-29T01:39:40;5.73;;;4.17;;
48685;SDS011;34485;51.536;3.816;2022-09-29T01:42:19;4.82;;;4.10;;
48685;SDS011;34485;51.536;3.816;2022-09-29T01:44:52;4.45;;;3.70;;
48685;SDS011;34485;51.536;3.816;2022-09-29T01:47:23;7.57;;;3.60;;
48685;SDS011;34485;51.536;3.816;2022-09-29T01:50:09;6.82;;;4.07;;
48685;SDS011;34485;51.536;3.816;2022-09-29T01:52:44;6.10;;;4.13;;
48685;SDS011;34485;51.536;3.816;2022-09-29T01:55:19;6.07;;;4.22;;
48685;SDS011;34485;51.536;3.816;2022-09-29T01:58:01;4.65;;;4.25;;
48685;SDS011;34485;51.536;3.816;2022-09-29T02:00:30;7.15;;;4.32;;
48685;SDS011;34485;51.536;3.816;2022-09-29T02:05:49;4.53;;;3.77;;
48685;SDS011;34485;51.536;3.816;2022-09-29T02:08:20;14.02;;;4.45;;
48685;SDS011;34485;51.536;3.816;2022-09-29T02:11:03;5.13;;;3.97;;
48685;SDS011;34485;51.536;3.816;2022-09-29T02:13:32;8.15;;;4.70;;
48685;SDS011;34485;51.536;3.816;2022-09-29T02:16:05;7.07;;;4.38;;
48685;SDS011;34485;51.536;3.816;2022-09-29T02:18:36;5.50;;;4.00;;
48685;SDS011;34485;51.536;3.816;2022-09-29T02:21:23;6.85;;;3.88;;
48685;SDS011;34485;51.536;3.816;2022-09-29T02:23:50;4.20;;;3.80;;
48685;SDS011;34485;51.536;3.816;2022-09-29T02:26:16;6.75;;;3.85;;
48685;SDS011;34485;51.536;3.816;2022-09-29T02:28:44;4.97;;;4.47;;
48685;SDS011;34485;51.536;3.816;2022-09-29T02:31:10;6.83;;;4.17;;
48685;SDS011;34485;51.536;3.816;2022-09-29T02:33:36;4.18;;;3.72;;
48685;SDS011;34485;51.536;3.816;2022-09-29T02:39:07;6.83;;;4.13;;
48685;SDS011;34485;51.536;3.816;2022-09-29T02:42:06;5.05;;;4.38;;
48685;SDS011;34485;51.536;3.816;2022-09-29T02:48:17;9.50;;;4.85;;
48685;SDS011;34485;51.536;3.816;2022-09-29T02:53:36;5.57;;;3.87;;
48685;SDS011;34485;51.536;3.816;2022-09-29T03:01:32;4.18;;;3.83;;
48685;SDS011;34485;51.536;3.816;2022-09-29T03:03:58;4.50;;;4.03;;
48685;SDS011;34485;51.536;3.816;2022-09-29T03:06:24;4.87;;;4.37;;
48685;SDS011;34485;51.536;3.816;2022-09-29T03:08:51;7.90;;;4.30;;
48685;SDS011;34485;51.536;3.816;2022-09-29T03:11:17;6.53;;;5.00;;
48685;SDS011;34485;51.536;3.816;2022-09-29T03:13:42;6.97;;;5.20;;
48685;SDS011;34485;51.536;3.816;2022-09-29T03:16:08;8.10;;;5.90;;
48685;SDS011;34485;51.536;3.816;2022-09-29T03:18:34;5.68;;;5.07;;
48685;SDS011;34485;51.536;3.816;2022-09-29T03:20:59;6.03;;;4.20;;
48685;SDS011;34485;51.536;3.816;2022-09-29T03:23:25;7.10;;;5.32;;
48685;SDS011;34485;51.536;3.816;2022-09-29T03:25:50;5.17;;;4.77;;
48685;SDS011;34485;51.536;3.816;2022-09-29T03:28:16;4.53;;;4.13;;
48685;SDS011;34485;51.536;3.816;2022-09-29T03:30:42;5.50;;;4.30;;
48685;SDS011;34485;51.536;3.816;2022-09-29T03:33:09;6.15;;;5.18;;
48685;SDS011;34485;51.536;3.816;2022-09-29T03:35:35;7.07;;;6.10;;
48685;SDS011;34485;51.536;3.816;2022-09-29T03:38:00;5.80;;;5.20;;
48685;SDS011;34485;51.536;3.816;2022-09-29T03:40:27;8.15;;;6.03;;
48685;SDS011;34485;51.536;3.816;2022-09-29T03:42:52;6.97;;;6.13;;
48685;SDS011;34485;51.536;3.816;2022-09-29T03:45:18;8.80;;;5.73;;
48685;SDS011;34485;51.536;3.816;2022-09-29T03:47:44;7.93;;;6.57;;
48685;SDS011;34485;51.536;3.816;2022-09-29T03:50:09;7.25;;;6.53;;
48685;SDS011;34485;51.536;3.816;2022-09-29T03:52:35;8.13;;;5.10;;
48685;SDS011;34485;51.536;3.816;2022-09-29T03:55:01;12.80;;;6.50;;
48685;SDS011;34485;51.536;3.816;2022-09-29T03:57:27;9.02;;;5.40;;
48685;SDS011;34485;51.536;3.816;2022-09-29T03:59:52;8.53;;;6.27;;
48685;SDS011;34485;51.536;3.816;2022-09-29T04:02:18;10.60;;;6.13;;
48685;SDS011;34485;51.536;3.816;2022-09-29T04:04:44;6.80;;;6.10;;
48685;SDS011;34485;51.536;3.816;2022-09-29T04:07:10;6.70;;;6.00;;
48685;SDS011;34485;51.536;3.816;2022-09-29T04:09:36;12.93;;;6.23;;
48685;SDS011;34485;51.536;3.816;2022-09-29T04:12:02;16.13;;;6.88;;
48685;SDS011;34485;51.536;3.816;2022-09-29T04:14:28;6.65;;;6.05;;
48685;SDS011;34485;51.536;3.816;2022-09-29T04:16:54;6.70;;;6.10;;
48685;SDS011;34485;51.536;3.816;2022-09-29T04:19:19;8.43;;;6.07;;
48685;SDS011;34485;51.536;3.816;2022-09-29T04:21:45;6.50;;;5.10;;
48685;SDS011;34485;51.536;3.816;2022-09-29T04:24:10;9.00;;;6.63;;
48685;SDS011;34485;51.536;3.816;2022-09-29T04:26:36;10.03;;;6.23;;
48685;SDS011;34485;51.536;3.816;2022-09-29T04:29:04;9.65;;;6.13;;
48685;SDS011;34485;51.536;3.816;2022-09-29T04:31:29;7.90;;;5.93;;
48685;SDS011;34485;51.536;3.816;2022-09-29T04:33:55;13.57;;;6.40;;
48685;SDS011;34485;51.536;3.816;2022-09-29T04:36:21;9.50;;;6.18;;
48685;SDS011;34485;51.536;3.816;2022-09-29T04:38:46;5.70;;;5.00;;
48685;SDS011;34485;51.536;3.816;2022-09-29T04:41:14;6.07;;;5.47;;
48685;SDS011;34485;51.536;3.816;2022-09-29T04:43:39;6.23;;;5.60;;
48685;SDS011;34485;51.536;3.816;2022-09-29T04:46:06;11.32;;;5.68;;
48685;SDS011;34485;51.536;3.816;2022-09-29T04:48:32;7.43;;;5.20;;
48685;SDS011;34485;51.536;3.816;2022-09-29T04:50:59;7.32;;;5.50;;
48685;SDS011;34485;51.536;3.816;2022-09-29T04:53:25;6.20;;;5.60;;
48685;SDS011;34485;51.536;3.816;2022-09-29T04:55:51;6.10;;;5.35;;
48685;SDS011;34485;51.536;3.816;2022-09-29T04:58:17;6.10;;;5.17;;
48685;SDS011;34485;51.536;3.816;2022-09-29T05:00:42;7.30;;;6.60;;
48685;SDS011;34485;51.536;3.816;2022-09-29T05:03:08;6.20;;;5.60;;
48685;SDS011;34485;51.536;3.816;2022-09-29T05:05:34;7.17;;;4.37;;
48685;SDS011;34485;51.536;3.816;2022-09-29T05:08:01;4.63;;;4.23;;
48685;SDS011;34485;51.536;3.816;2022-09-29T05:10:28;5.65;;;5.05;;
48685;SDS011;34485;51.536;3.816;2022-09-29T05:12:54;5.63;;;5.13;;
48685;SDS011;34485;51.536;3.816;2022-09-29T05:15:21;5.93;;;5.33;;
48685;SDS011;34485;51.536;3.816;2022-09-29T05:17:47;5.13;;;4.63;;
48685;SDS011;34485;51.536;3.816;2022-09-29T05:20:12;5.57;;;5.07;;
48685;SDS011;34485;51.536;3.816;2022-09-29T05:22:40;7.30;;;5.07;;
48685;SDS011;34485;51.536;3.816;2022-09-29T05:25:06;5.03;;;4.57;;
48685;SDS011;34485;51.536;3.816;2022-09-29T05:27:33;6.28;;;5.22;;
48685;SDS011;34485;51.536;3.816;2022-09-29T05:30:00;11.35;;;4.28;;
48685;SDS011;34485;51.536;3.816;2022-09-29T05:32:26;5.53;;;4.40;;
48685;SDS011;34485;51.536;3.816;2022-09-29T05:34:51;4.20;;;3.87;;
48685;SDS011;34485;51.536;3.816;2022-09-29T05:37:17;6.53;;;4.43;;
48685;SDS011;34485;51.536;3.816;2022-09-29T05:39:42;6.47;;;5.40;;
48685;SDS011;34485;51.536;3.816;2022-09-29T05:42:09;5.50;;;5.00;;
48685;SDS011;34485;51.536;3.816;2022-09-29T05:44:35;5.77;;;4.80;;
48685;SDS011;34485;51.536;3.816;2022-09-29T05:47:01;7.20;;;5.55;;
48685;SDS011;34485;51.536;3.816;2022-09-29T05:49:27;6.47;;;5.13;;
48685;SDS011;34485;51.536;3.816;2022-09-29T05:51:55;6.73;;;4.90;;
48685;SDS011;34485;51.536;3.816;2022-09-29T05:54:21;7.82;;;5.20;;
48685;SDS011;34485;51.536;3.816;2022-09-29T05:56:48;10.50;;;5.10;;
48685;SDS011;34485;51.536;3.816;2022-09-29T05:59:13;9.17;;;4.43;;
48685;SDS011;34485;51.536;3.816;2022-09-29T06:01:39;5.90;;;4.32;;
48685;SDS011;34485;51.536;3.816;2022-09-29T06:04:04;78.83;;;6.07;;
48685;SDS011;34485;51.536;3.816;2022-09-29T06:06:30;9.80;;;5.37;;
48685;SDS011;34485;51.536;3.816;2022-09-29T06:08:56;7.53;;;5.35;;
48685;SDS011;34485;51.536;3.816;2022-09-29T06:11:27;7.00;;;5.57;;
48685;SDS011;34485;51.536;3.816;2022-09-29T06:13:55;6.73;;;4.83;;
48685;SDS011;34485;51.536;3.816;2022-09-29T06:16:25;4.68;;;4.25;;
48685;SDS011;34485;51.536;3.816;2022-09-29T06:18:52;7.97;;;4.60;;
48685;SDS011;34485;51.536;3.816;2022-09-29T06:21:19;5.73;;;4.83;;
48685;SDS011;34485;51.536;3.816;2022-09-29T06:23:47;8.55;;;4.60;;
48685;SDS011;34485;51.536;3.816;2022-09-29T06:26:14;11.93;;;5.72;;
48685;SDS011;34485;51.536;3.816;2022-09-29T06:28:41;7.80;;;5.70;;
48685;SDS011;34485;51.536;3.816;2022-09-29T06:31:09;7.90;;;5.37;;
48685;SDS011;34485;51.536;3.816;2022-09-29T06:33:36;9.90;;;6.55;;
48685;SDS011;34485;51.536;3.816;2022-09-29T06:36:04;9.90;;;5.80;;
48685;SDS011;34485;51.536;3.816;2022-09-29T06:38:56;9.98;;;5.78;;
48685;SDS011;34485;51.536;3.816;2022-09-29T06:41:22;6.73;;;5.60;;
48685;SDS011;34485;51.536;3.816;2022-09-29T06:43:47;8.32;;;5.95;;
48685;SDS011;34485;51.536;3.816;2022-09-29T06:46:13;9.83;;;6.70;;
48685;SDS011;34485;51.536;3.816;2022-09-29T06:48:38;11.73;;;6.93;;
48685;SDS011;34485;51.536;3.816;2022-09-29T06:51:05;13.50;;;6.67;;
48685;SDS011;34485;51.536;3.816;2022-09-29T06:53:32;7.90;;;6.13;;
48685;SDS011;34485;51.536;3.816;2022-09-29T06:55:58;7.63;;;6.75;;
48685;SDS011;34485;51.536;3.816;2022-09-29T06:58:27;10.87;;;5.77;;
48685;SDS011;34485;51.536;3.816;2022-09-29T07:00:53;7.63;;;5.82;;
48685;SDS011;34485;51.536;3.816;2022-09-29T07:03:19;7.55;;;6.30;;
48685;SDS011;34485;51.536;3.816;2022-09-29T07:05:45;8.52;;;5.97;;
48685;SDS011;34485;51.536;3.816;2022-09-29T07:08:11;13.07;;;6.27;;
48685;SDS011;34485;51.536;3.816;2022-09-29T07:10:37;16.15;;;6.22;;
48685;SDS011;34485;51.536;3.816;2022-09-29T07:13:03;9.80;;;5.97;;
48685;SDS011;34485;51.536;3.816;2022-09-29T07:15:30;7.18;;;5.82;;
48685;SDS011;34485;51.536;3.816;2022-09-29T07:17:56;8.85;;;5.95;;
48685;SDS011;34485;51.536;3.816;2022-09-29T07:20:24;10.10;;;5.22;;
48685;SDS011;34485;51.536;3.816;2022-09-29T07:22:50;7.10;;;4.65;;
48685;SDS011;34485;51.536;3.816;2022-09-29T07:25:16;9.07;;;5.50;;
48685;SDS011;34485;51.536;3.816;2022-09-29T07:27:41;8.63;;;5.17;;
48685;SDS011;34485;51.536;3.816;2022-09-29T07:30:07;7.37;;;5.77;;
48685;SDS011;34485;51.536;3.816;2022-09-29T07:32:33;6.32;;;5.22;;
48685;SDS011;34485;51.536;3.816;2022-09-29T07:34:59;9.27;;;5.63;;
48685;SDS011;34485;51.536;3.816;2022-09-29T07:37:26;8.33;;;4.93;;
48685;SDS011;34485;51.536;3.816;2022-09-29T07:39:52;12.95;;;5.35;;
48685;SDS011;34485;51.536;3.816;2022-09-29T07:42:18;6.65;;;5.15;;
48685;SDS011;34485;51.536;3.816;2022-09-29T07:44:45;18.45;;;6.13;;
48685;SDS011;34485;51.536;3.816;2022-09-29T07:47:11;8.02;;;5.47;;
48685;SDS011;34485;51.536;3.816;2022-09-29T07:49:37;6.60;;;5.17;;
48685;SDS011;34485;51.536;3.816;2022-09-29T07:52:03;9.55;;;5.13;;
48685;SDS011;34485;51.536;3.816;2022-09-29T07:54:29;10.20;;;5.75;;
48685;SDS011;34485;51.536;3.816;2022-09-29T07:56:55;7.83;;;5.07;;
48685;SDS011;34485;51.536;3.816;2022-09-29T07:59:21;8.05;;;5.60;;
48685;SDS011;34485;51.536;3.816;2022-09-29T08:01:47;5.45;;;4.28;;
48685;SDS011;34485;51.536;3.816;2022-09-29T08:04:12;4.40;;;2.53;;
48685;SDS011;34485;51.536;3.816;2022-09-29T08:06:38;3.67;;;2.93;;
48685;SDS011;34485;51.536;3.816;2022-09-29T08:09:05;2.03;;;1.83;;
48685;SDS011;34485;51.536;3.816;2022-09-29T08:11:31;3.65;;;2.65;;
48685;SDS011;34485;51.536;3.816;2022-09-29T08:14:00;4.30;;;2.15;;
48685;SDS011;34485;51.536;3.816;2022-09-29T08:16:26;2.33;;;1.70;;
48685;SDS011;34485;51.536;3.816;2022-09-29T08:18:52;1.73;;;1.52;;
48685;SDS011;34485;51.536;3.816;2022-09-29T08:21:17;2.47;;;1.30;;
48685;SDS011;34485;51.536;3.816;2022-09-29T08:23:43;3.20;;;1.40;;
48685;SDS011;34485;51.536;3.816;2022-09-29T08:26:10;3.92;;;1.38;;
48685;SDS011;34485;51.536;3.816;2022-09-29T08:28:38;4.18;;;1.83;;
48685;SDS011;34485;51.536;3.816;2022-09-29T08:31:08;1.63;;;1.53;;
48685;SDS011;34485;51.536;3.816;2022-09-29T08:33:36;3.78;;;1.58;;
48685;SDS011;34485;51.536;3.816;2022-09-29T08:36:03;4.97;;;1.70;;
48685;SDS011;34485;51.536;3.816;2022-09-29T08:38:32;1.73;;;1.55;;
48685;SDS011;34485;51.536;3.816;2022-09-29T08:41:01;2.13;;;1.93;;
48685;SDS011;34485;51.536;3.816;2022-09-29T08:43:31;2.35;;;1.60;;
48685;SDS011;34485;51.536;3.816;2022-09-29T08:46:10;1.55;;;1.40;;
48685;SDS011;34485;51.536;3.816;2022-09-29T08:49:20;2.83;;;1.80;;
48685;SDS011;34485;51.536;3.816;2022-09-29T08:51:51;2.70;;;1.50;;
48685;SDS011;34485;51.536;3.816;2022-09-29T08:54:23;2.15;;;1.80;;
48685;SDS011;34485;51.536;3.816;2022-09-29T08:57:01;3.40;;;1.50;;
48685;SDS011;34485;51.536;3.816;2022-09-29T08:59:28;4.80;;;1.60;;
48685;SDS011;34485;51.536;3.816;2022-09-29T09:02:04;1.90;;;1.80;;
48685;SDS011;34485;51.536;3.816;2022-09-29T09:10:28;2.38;;;2.17;;
48685;SDS011;34485;51.536;3.816;2022-09-29T09:13:00;2.17;;;2.08;;
48685;SDS011;34485;51.536;3.816;2022-09-29T09:21:41;4.60;;;1.80;;
48685;SDS011;34485;51.536;3.816;2022-09-29T09:27:04;2.17;;;1.48;;
48685;SDS011;34485;51.536;3.816;2022-09-29T09:29:33;1.70;;;1.60;;
48685;SDS011;34485;51.536;3.816;2022-09-29T09:32:07;1.43;;;1.33;;
48685;SDS011;34485;51.536;3.816;2022-09-29T09:34:40;3.25;;;2.08;;
48685;SDS011;34485;51.536;3.816;2022-09-29T09:37:14;6.75;;;1.58;;
48685;SDS011;34485;51.536;3.816;2022-09-29T09:42:14;2.63;;;1.30;;
48685;SDS011;34485;51.536;3.816;2022-09-29T09:44:48;1.00;;;1.00;;
48685;SDS011;34485;51.536;3.816;2022-09-29T09:47:25;2.05;;;1.10;;
48685;SDS011;34485;51.536;3.816;2022-09-29T09:50:03;1.00;;;0.90;;
48685;SDS011;34485;51.536;3.816;2022-09-29T09:52:40;0.90;;;0.90;;
48685;SDS011;34485;51.536;3.816;2022-09-29T09:55:28;1.17;;;0.77;;
48685;SDS011;34485;51.536;3.816;2022-09-29T10:00:46;1.25;;;1.15;;
48685;SDS011;34485;51.536;3.816;2022-09-29T10:03:16;1.08;;;1.00;;
48685;SDS011;34485;51.536;3.816;2022-09-29T10:05:42;1.40;;;1.10;;
48685;SDS011;34485;51.536;3.816;2022-09-29T10:08:11;0.83;;;0.80;;
48685;SDS011;34485;51.536;3.816;2022-09-29T10:10:52;3.10;;;1.55;;
48685;SDS011;34485;51.536;3.816;2022-09-29T10:13:18;3.75;;;1.25;;
48685;SDS011;34485;51.536;3.816;2022-09-29T10:15:47;1.50;;;1.40;;
48685;SDS011;34485;51.536;3.816;2022-09-29T10:18:28;1.65;;;1.55;;
48685;SDS011;34485;51.536;3.816;2022-09-29T10:21:00;6.40;;;1.73;;
48685;SDS011;34485;51.536;3.816;2022-09-29T10:26:10;1.17;;;1.08;;
48685;SDS011;34485;51.536;3.816;2022-09-29T10:28:46;2.60;;;1.10;;
48685;SDS011;34485;51.536;3.816;2022-09-29T10:31:20;1.87;;;1.73;;
48685;SDS011;34485;51.536;3.816;2022-09-29T10:36:23;1.50;;;1.40;;
48685;SDS011;34485;51.536;3.816;2022-09-29T10:38:50;1.67;;;1.58;;
48685;SDS011;34485;51.536;3.816;2022-09-29T10:41:16;1.95;;;1.42;;
48685;SDS011;34485;51.536;3.816;2022-09-29T10:43:44;1.67;;;1.27;;
48685;SDS011;34485;51.536;3.816;2022-09-29T10:47:12;2.42;;;1.30;;
48685;SDS011;34485;51.536;3.816;2022-09-29T10:49:18;2.42;;;1.88;;
48685;SDS011;34485;51.536;3.816;2022-09-29T10:54:22;1.73;;;1.63;;
48685;SDS011;34485;51.536;3.816;2022-09-29T10:56:50;3.43;;;1.37;;
48685;SDS011;34485;51.536;3.816;2022-09-29T10:59:17;1.42;;;1.23;;
48685;SDS011;34485;51.536;3.816;2022-09-29T11:01:50;6.07;;;1.40;;
48685;SDS011;34485;51.536;3.816;2022-09-29T11:04:24;1.42;;;1.05;;
48685;SDS011;34485;51.536;3.816;2022-09-29T11:06:51;6.40;;;1.23;;
48685;SDS011;34485;51.536;3.816;2022-09-29T11:17:05;1.67;;;0.80;;
48685;SDS011;34485;51.536;3.816;2022-09-29T11:19:51;1.40;;;1.02;;
48685;SDS011;34485;51.536;3.816;2022-09-29T11:22:23;1.65;;;1.55;;
48685;SDS011;34485;51.536;3.816;2022-09-29T11:25:03;1.38;;;1.27;;
48685;SDS011;34485;51.536;3.816;2022-09-29T11:30:31;2.10;;;1.00;;
48685;SDS011;34485;51.536;3.816;2022-09-29T11:35:38;1.42;;;1.33;;
48685;SDS011;34485;51.536;3.816;2022-09-29T11:41:01;2.28;;;1.77;;
48685;SDS011;34485;51.536;3.816;2022-09-29T11:43:42;1.47;;;1.37;;
48685;SDS011;34485;51.536;3.816;2022-09-29T11:46:16;3.70;;;1.65;;
48685;SDS011;34485;51.536;3.816;2022-09-29T11:54:33;2.25;;;1.33;;
48685;SDS011;34485;51.536;3.816;2022-09-29T11:57:09;2.27;;;1.83;;
48685;SDS011;34485;51.536;3.816;2022-09-29T12:02:34;1.52;;;1.40;;
48685;SDS011;34485;51.536;3.816;2022-09-29T12:11:24;1.80;;;1.70;;
48685;SDS011;34485;51.536;3.816;2022-09-29T12:14:04;1.48;;;1.30;;
48685;SDS011;34485;51.536;3.816;2022-09-29T12:16:58;1.83;;;1.73;;
48685;SDS011;34485;51.536;3.816;2022-09-29T12:19:29;1.80;;;1.70;;
48685;SDS011;34485;51.536;3.816;2022-09-29T12:22:00;2.75;;;1.35;;
48685;SDS011;34485;51.536;3.816;2022-09-29T12:24:35;2.47;;;1.70;;
48685;SDS011;34485;51.536;3.816;2022-09-29T12:27:27;5.80;;;1.63;;
48685;SDS011;34485;51.536;3.816;2022-09-29T12:29:55;1.38;;;1.27;;
48685;SDS011;34485;51.536;3.816;2022-09-29T12:32:27;1.58;;;1.48;;
48685;SDS011;34485;51.536;3.816;2022-09-29T12:35:14;1.33;;;1.23;;
48685;SDS011;34485;51.536;3.816;2022-09-29T12:40:43;2.03;;;1.35;;
48685;SDS011;34485;51.536;3.816;2022-09-29T12:43:16;1.70;;;1.50;;
48685;SDS011;34485;51.536;3.816;2022-09-29T12:45:57;2.05;;;1.95;;
48685;SDS011;34485;51.536;3.816;2022-09-29T12:56:31;4.28;;;1.20;;
48685;SDS011;34485;51.536;3.816;2022-09-29T12:59:21;1.35;;;0.98;;
48685;SDS011;34485;51.536;3.816;2022-09-29T13:10:56;1.00;;;1.00;;
48685;SDS011;34485;51.536;3.816;2022-09-29T13:21:53;1.10;;;1.10;;
48685;SDS011;34485;51.536;3.816;2022-09-29T13:27:38;1.60;;;1.50;;
48685;SDS011;34485;51.536;3.816;2022-09-29T13:32:41;0.73;;;0.63;;
48685;SDS011;34485;51.536;3.816;2022-09-29T13:35:15;1.38;;;1.27;;
48685;SDS011;34485;51.536;3.816;2022-09-29T13:37:44;1.00;;;1.00;;
48685;SDS011;34485;51.536;3.816;2022-09-29T13:40:16;0.70;;;0.60;;
48685;SDS011;34485;51.536;3.816;2022-09-29T13:42:46;0.82;;;0.82;;
48685;SDS011;34485;51.536;3.816;2022-09-29T13:47:45;1.20;;;1.20;;
48685;SDS011;34485;51.536;3.816;2022-09-29T13:55:48;1.55;;;1.45;;
48685;SDS011;34485;51.536;3.816;2022-09-29T13:58:22;1.50;;;1.23;;
48685;SDS011;34485;51.536;3.816;2022-09-29T14:00:48;0.90;;;0.90;;
48685;SDS011;34485;51.536;3.816;2022-09-29T14:06:03;1.77;;;1.67;;
48685;SDS011;34485;51.536;3.816;2022-09-29T14:11:32;1.60;;;1.48;;
48685;SDS011;34485;51.536;3.816;2022-09-29T14:27:41;1.65;;;1.65;;
48685;SDS011;34485;51.536;3.816;2022-09-29T14:30:20;0.90;;;0.90;;
48685;SDS011;34485;51.536;3.816;2022-09-29T14:33:15;1.23;;;1.23;;
48685;SDS011;34485;51.536;3.816;2022-09-29T14:35:59;1.27;;;1.27;;
48685;SDS011;34485;51.536;3.816;2022-09-29T14:38:40;0.85;;;0.85;;
48685;SDS011;34485;51.536;3.816;2022-09-29T14:41:18;1.98;;;1.88;;
48685;SDS011;34485;51.536;3.816;2022-09-29T14:43:49;1.37;;;1.27;;
48685;SDS011;34485;51.536;3.816;2022-09-29T15:01:22;1.55;;;1.45;;
48685;SDS011;34485;51.536;3.816;2022-09-29T15:04:29;1.90;;;1.77;;
48685;SDS011;34485;51.536;3.816;2022-09-29T15:06:48;1.23;;;1.13;;
48685;SDS011;34485;51.536;3.816;2022-09-29T15:09:17;2.00;;;1.90;;
48685;SDS011;34485;51.536;3.816;2022-09-29T15:11:51;1.60;;;1.33;;
48685;SDS011;34485;51.536;3.816;2022-09-29T15:14:30;1.52;;;1.42;;
48685;SDS011;34485;51.536;3.816;2022-09-29T15:17:12;1.38;;;1.35;;
48685;SDS011;34485;51.536;3.816;2022-09-29T15:25:47;1.40;;;1.30;;
48685;SDS011;34485;51.536;3.816;2022-09-29T15:28:23;2.25;;;1.25;;
48685;SDS011;34485;51.536;3.816;2022-09-29T15:30:57;1.42;;;1.33;;
48685;SDS011;34485;51.536;3.816;2022-09-29T15:33:28;1.33;;;0.90;;
48685;SDS011;34485;51.536;3.816;2022-09-29T15:35:58;1.80;;;1.70;;
48685;SDS011;34485;51.536;3.816;2022-09-29T15:38:31;1.80;;;1.47;;
48685;SDS011;34485;51.536;3.816;2022-09-29T15:41:03;0.95;;;0.95;;
48685;SDS011;34485;51.536;3.816;2022-09-29T15:43:42;1.63;;;1.52;;
48685;SDS011;34485;51.536;3.816;2022-09-29T15:49:06;2.30;;;1.47;;
48685;SDS011;34485;51.536;3.816;2022-09-29T15:51:37;1.23;;;1.23;;
48685;SDS011;34485;51.536;3.816;2022-09-29T15:54:04;1.08;;;1.08;;
48685;SDS011;34485;51.536;3.816;2022-09-29T15:56:33;1.40;;;1.40;;
48685;SDS011;34485;51.536;3.816;2022-09-29T15:59:19;1.27;;;1.27;;
48685;SDS011;34485;51.536;3.816;2022-09-29T16:01:45;1.77;;;1.67;;
48685;SDS011;34485;51.536;3.816;2022-09-29T16:04:10;2.92;;;1.58;;
48685;SDS011;34485;51.536;3.816;2022-09-29T16:06:37;1.25;;;1.15;;
48685;SDS011;34485;51.536;3.816;2022-09-29T16:09:15;1.35;;;1.30;;
48685;SDS011;34485;51.536;3.816;2022-09-29T16:11:43;1.23;;;1.13;;
48685;SDS011;34485;51.536;3.816;2022-09-29T16:14:10;1.20;;;1.20;;
48685;SDS011;34485;51.536;3.816;2022-09-29T16:16:48;1.50;;;1.40;;
48685;SDS011;34485;51.536;3.816;2022-09-29T16:19:25;3.08;;;1.30;;
48685;SDS011;34485;51.536;3.816;2022-09-29T16:21:53;1.17;;;1.17;;
48685;SDS011;34485;51.536;3.816;2022-09-29T16:24:21;0.90;;;0.90;;
48685;SDS011;34485;51.536;3.816;2022-09-29T16:26:51;1.30;;;1.30;;
48685;SDS011;34485;51.536;3.816;2022-09-29T16:31:45;1.13;;;1.03;;
48685;SDS011;34485;51.536;3.816;2022-09-29T16:36:49;1.33;;;1.33;;
48685;SDS011;34485;51.536;3.816;2022-09-29T16:39:18;2.45;;;1.63;;
48685;SDS011;34485;51.536;3.816;2022-09-29T16:41:47;1.45;;;1.35;;
48685;SDS011;34485;51.536;3.816;2022-09-29T16:44:14;1.70;;;1.60;;
48685;SDS011;34485;51.536;3.816;2022-09-29T16:46:59;1.50;;;1.40;;
48685;SDS011;34485;51.536;3.816;2022-09-29T16:49:29;1.45;;;1.35;;
48685;SDS011;34485;51.536;3.816;2022-09-29T16:51:58;2.88;;;1.70;;
48685;SDS011;34485;51.536;3.816;2022-09-29T16:54:41;1.40;;;1.35;;
48685;SDS011;34485;51.536;3.816;2022-09-29T16:57:14;2.10;;;2.00;;
48685;SDS011;34485;51.536;3.816;2022-09-29T16:59:48;1.58;;;1.50;;
48685;SDS011;34485;51.536;3.816;2022-09-29T17:02:16;2.42;;;1.90;;
48685;SDS011;34485;51.536;3.816;2022-09-29T17:04:42;3.03;;;2.72;;
48685;SDS011;34485;51.536;3.816;2022-09-29T17:07:14;3.03;;;2.83;;
48685;SDS011;34485;51.536;3.816;2022-09-29T17:09:48;3.85;;;2.05;;
48685;SDS011;34485;51.536;3.816;2022-09-29T17:12:16;2.80;;;1.67;;
48685;SDS011;34485;51.536;3.816;2022-09-29T17:14:42;1.57;;;1.47;;
48685;SDS011;34485;51.536;3.816;2022-09-29T17:17:20;1.55;;;1.45;;
48685;SDS011;34485;51.536;3.816;2022-09-29T17:19:49;1.40;;;1.30;;
48685;SDS011;34485;51.536;3.816;2022-09-29T17:22:27;1.77;;;1.67;;
48685;SDS011;34485;51.536;3.816;2022-09-29T17:24:58;3.65;;;1.10;;
48685;SDS011;34485;51.536;3.816;2022-09-29T17:27:24;1.70;;;1.60;;
48685;SDS011;34485;51.536;3.816;2022-09-29T17:30:11;2.40;;;1.40;;
48685;SDS011;34485;51.536;3.816;2022-09-29T17:32:41;1.73;;;1.50;;
48685;SDS011;34485;51.536;3.816;2022-09-29T17:35:08;1.73;;;1.63;;
48685;SDS011;34485;51.536;3.816;2022-09-29T17:37:36;6.47;;;2.00;;
48685;SDS011;34485;51.536;3.816;2022-09-29T17:40:08;1.43;;;1.43;;
48685;SDS011;34485;51.536;3.816;2022-09-29T17:42:49;1.30;;;1.30;;
48685;SDS011;34485;51.536;3.816;2022-09-29T17:45:15;2.38;;;2.00;;
48685;SDS011;34485;51.536;3.816;2022-09-29T17:47:43;2.38;;;1.80;;
48685;SDS011;34485;51.536;3.816;2022-09-29T17:50:14;1.77;;;1.45;;
48685;SDS011;34485;51.536;3.816;2022-09-29T17:52:44;1.50;;;1.40;;
48685;SDS011;34485;51.536;3.816;2022-09-29T17:55:09;4.70;;;1.50;;
48685;SDS011;34485;51.536;3.816;2022-09-29T17:57:36;2.58;;;1.85;;
48685;SDS011;34485;51.536;3.816;2022-09-29T18:00:03;4.37;;;3.40;;
48685;SDS011;34485;51.536;3.816;2022-09-29T18:02:39;1.92;;;1.73;;
48685;SDS011;34485;51.536;3.816;2022-09-29T18:05:05;2.80;;;1.80;;
48685;SDS011;34485;51.536;3.816;2022-09-29T18:07:31;4.40;;;2.53;;